createdAt,value
2018-09-09T00:00:35.865Z,20.00
2018-09-09T00:03:04.671Z,20.00
2018-09-09T00:05:33.471Z,20.00
2018-09-09T00:08:02.670Z,20.00
2018-09-09T00:10:31.483Z,20.00
2018-09-09T00:13:00.296Z,19.90
2018-09-09T00:15:29.118Z,19.90
2018-09-09T00:17:58.040Z,19.90
2018-09-09T00:20:26.834Z,19.90
2018-09-09T00:22:55.670Z,19.90
2018-09-09T00:25:24.498Z,19.90
2018-09-09T00:27:53.307Z,19.90
2018-09-09T00:30:22.110Z,19.90
2018-09-09T00:32:50.929Z,19.90
2018-09-09T00:35:19.741Z,19.80
2018-09-09T00:37:48.546Z,19.80
2018-09-09T00:40:17.606Z,19.80
2018-09-09T00:42:46.402Z,19.80
2018-09-09T00:45:15.221Z,19.80
2018-09-09T00:47:44.035Z,19.80
2018-09-09T00:50:18.348Z,19.70
2018-09-09T00:52:52.593Z,19.70
2018-09-09T00:55:21.406Z,19.70
2018-09-09T00:57:50.217Z,19.70
2018-09-09T01:00:24.677Z,19.70
2018-09-09T01:02:53.553Z,19.70
2018-09-09T01:05:22.346Z,19.70
2018-09-09T01:07:51.177Z,19.70
2018-09-09T01:10:20.277Z,19.70
2018-09-09T01:12:49.093Z,19.70
2018-09-09T01:15:17.983Z,19.70
2018-09-09T01:17:46.771Z,19.60
2018-09-09T01:20:15.582Z,19.60
2018-09-09T01:22:44.547Z,19.60
2018-09-09T01:25:13.346Z,19.70
2018-09-09T01:27:42.154Z,19.60
2018-09-09T01:30:11.039Z,19.60
2018-09-09T01:32:39.831Z,19.70
2018-09-09T01:35:08.670Z,19.70
2018-09-09T01:37:37.511Z,19.70
2018-09-09T01:40:07.193Z,19.70
2018-09-09T01:42:35.994Z,19.60
2018-09-09T01:45:05.158Z,19.70
2018-09-09T01:47:33.959Z,19.70
2018-09-09T01:50:02.763Z,19.60
2018-09-09T01:52:31.578Z,19.70
2018-09-09T01:55:00.483Z,19.70
2018-09-09T01:57:29.406Z,19.70
2018-09-09T01:59:58.237Z,19.70
2018-09-09T02:02:27.036Z,19.70
2018-09-09T02:04:55.830Z,19.70
2018-09-09T02:07:24.767Z,19.70
2018-09-09T02:09:53.572Z,19.70
2018-09-09T02:12:22.759Z,19.70
2018-09-09T02:14:51.599Z,19.70
2018-09-09T02:17:20.385Z,19.70
2018-09-09T02:19:49.180Z,19.70
2018-09-09T02:22:17.979Z,19.70
2018-09-09T02:24:46.810Z,19.70
2018-09-09T02:27:15.758Z,19.70
2018-09-09T02:29:44.827Z,19.70
2018-09-09T02:32:13.669Z,19.70
2018-09-09T02:34:42.582Z,19.70
2018-09-09T02:37:11.374Z,19.70
2018-09-09T02:39:40.190Z,19.70
2018-09-09T02:42:09.133Z,19.70
2018-09-09T02:44:37.931Z,19.70
2018-09-09T02:47:06.751Z,19.70
2018-09-09T02:49:35.567Z,19.70
2018-09-09T02:52:04.517Z,19.70
2018-09-09T02:54:33.331Z,19.70
2018-09-09T02:57:02.133Z,19.70
2018-09-09T02:59:30.946Z,19.70
2018-09-09T03:01:59.764Z,19.70
2018-09-09T03:04:28.562Z,19.70
2018-09-09T03:06:57.422Z,19.70
2018-09-09T03:09:26.247Z,19.70
2018-09-09T03:11:55.046Z,19.60
2018-09-09T03:14:24.410Z,19.60
2018-09-09T03:16:53.248Z,19.60
2018-09-09T03:19:22.805Z,19.60
2018-09-09T03:21:51.618Z,19.60
2018-09-09T03:24:20.427Z,19.60
2018-09-09T03:26:49.241Z,19.60
2018-09-09T03:29:18.035Z,19.60
2018-09-09T03:31:46.878Z,19.60
2018-09-09T03:34:15.674Z,19.60
2018-09-09T03:36:44.639Z,19.60
2018-09-09T03:39:13.446Z,19.60
2018-09-09T03:41:42.249Z,19.50
2018-09-09T03:44:11.065Z,19.50
2018-09-09T03:46:39.948Z,19.50
2018-09-09T03:49:08.757Z,19.50
2018-09-09T03:51:37.655Z,19.50
2018-09-09T03:54:06.505Z,19.50
2018-09-09T03:56:35.294Z,19.50
2018-09-09T03:59:04.430Z,19.50
2018-09-09T04:01:33.247Z,19.50
2018-09-09T04:04:02.097Z,19.50
2018-09-09T04:06:30.923Z,19.40
2018-09-09T04:08:59.717Z,19.40
2018-09-09T04:11:28.521Z,19.40
2018-09-09T04:13:57.317Z,19.40
2018-09-09T04:16:26.589Z,19.40
2018-09-09T04:18:55.394Z,19.40
2018-09-09T04:21:24.323Z,19.40
2018-09-09T04:23:53.117Z,19.40
2018-09-09T04:26:21.930Z,19.40
2018-09-09T04:28:50.780Z,19.40
2018-09-09T04:31:19.569Z,19.40
2018-09-09T04:33:48.367Z,19.40
2018-09-09T04:36:17.189Z,19.30
2018-09-09T04:38:45.999Z,19.30
2018-09-09T04:41:14.885Z,19.30
2018-09-09T04:43:43.797Z,19.30
2018-09-09T04:46:12.612Z,19.30
2018-09-09T04:48:41.402Z,19.30
2018-09-09T04:51:10.200Z,19.20
2018-09-09T04:53:39.007Z,19.20
2018-09-09T04:56:07.838Z,19.20
2018-09-09T04:58:36.623Z,19.20
2018-09-09T05:01:05.455Z,19.20
2018-09-09T05:03:34.234Z,19.20
2018-09-09T05:06:03.383Z,19.20
2018-09-09T05:08:32.176Z,19.20
2018-09-09T05:11:01.000Z,19.20
2018-09-09T05:13:29.807Z,19.20
2018-09-09T05:15:58.614Z,19.20
2018-09-09T05:18:27.939Z,19.20
2018-09-09T05:20:56.761Z,19.30
2018-09-09T05:23:25.564Z,19.30
2018-09-09T05:25:54.409Z,19.30
2018-09-09T05:28:23.600Z,19.40
2018-09-09T05:30:52.386Z,19.40
2018-09-09T05:33:21.188Z,19.40
2018-09-09T05:35:49.988Z,19.50
2018-09-09T05:38:18.793Z,19.50
2018-09-09T05:40:47.586Z,19.50
2018-09-09T05:43:16.461Z,19.60
2018-09-09T05:45:45.268Z,19.60
2018-09-09T05:48:14.044Z,19.60
2018-09-09T05:50:43.215Z,19.70
2018-09-09T05:53:12.038Z,19.70
2018-09-09T05:55:40.854Z,19.70
2018-09-09T05:58:09.670Z,19.80
2018-09-09T06:00:38.471Z,19.80
2018-09-09T06:03:07.261Z,19.90
2018-09-09T06:05:36.069Z,19.90
2018-09-09T06:08:04.863Z,19.90
2018-09-09T06:10:33.663Z,20.00
2018-09-09T06:13:02.599Z,20.00
2018-09-09T06:15:31.399Z,20.10
2018-09-09T06:18:00.197Z,20.10
2018-09-09T06:20:29.309Z,20.20
2018-09-09T06:22:58.133Z,20.30
2018-09-09T06:25:26.999Z,20.30
2018-09-09T06:27:55.825Z,20.40
2018-09-09T06:30:24.622Z,20.40
2018-09-09T06:32:53.416Z,20.50
2018-09-09T06:35:22.629Z,20.60
2018-09-09T06:37:51.381Z,20.60
2018-09-09T06:40:20.214Z,20.60
2018-09-09T06:42:49.053Z,20.70
2018-09-09T06:45:17.894Z,20.80
2018-09-09T06:47:46.694Z,20.80
2018-09-09T06:50:15.497Z,20.90
2018-09-09T06:52:44.327Z,20.90
2018-09-09T06:55:13.258Z,21.00
2018-09-09T06:57:42.752Z,21.00
2018-09-09T07:00:11.633Z,21.10
2018-09-09T07:02:40.607Z,21.10
2018-09-09T07:05:09.439Z,21.20
2018-09-09T07:07:38.224Z,21.30
2018-09-09T07:10:08.706Z,21.30
2018-09-09T07:12:37.523Z,21.30
2018-09-09T07:15:08.628Z,21.30
2018-09-09T07:17:37.442Z,21.40
2018-09-09T07:20:08.630Z,21.40
2018-09-09T07:22:38.011Z,21.50
2018-09-09T07:25:08.063Z,21.50
2018-09-09T07:27:36.898Z,21.50
2018-09-09T07:30:05.726Z,21.60
2018-09-09T07:32:34.517Z,21.60
2018-09-09T07:35:03.342Z,21.70
2018-09-09T07:37:32.133Z,21.70
2018-09-09T07:40:00.917Z,21.80
2018-09-09T07:42:29.877Z,21.90
2018-09-09T07:44:58.682Z,21.90
2018-09-09T07:47:27.472Z,22.10
2018-09-09T07:49:56.282Z,22.10
2018-09-09T07:52:25.093Z,22.20
2018-09-09T07:54:54.738Z,22.30
2018-09-09T07:57:23.525Z,22.40
2018-09-09T07:59:52.334Z,22.50
2018-09-09T08:02:21.113Z,22.50
2018-09-09T08:04:50.179Z,22.60
2018-09-09T08:07:19.025Z,22.70
2018-09-09T08:09:47.824Z,22.70
2018-09-09T08:12:16.658Z,22.80
2018-09-09T08:14:45.458Z,22.90
2018-09-09T08:17:14.367Z,23.00
2018-09-09T08:19:43.154Z,23.00
2018-09-09T08:22:11.946Z,23.10
2018-09-09T08:24:41.205Z,23.20
2018-09-09T08:27:10.129Z,23.30
2018-09-09T08:29:39.194Z,23.40
2018-09-09T08:32:08.127Z,23.50
2018-09-09T08:34:36.967Z,23.60
2018-09-09T08:37:05.771Z,23.70
2018-09-09T08:39:34.650Z,23.80
2018-09-09T08:42:03.485Z,23.90
2018-09-09T08:44:32.359Z,24.00
2018-09-09T08:47:01.173Z,24.10
2018-09-09T08:49:30.118Z,24.30
2018-09-09T08:51:59.009Z,24.30
2018-09-09T08:54:27.754Z,24.40
2018-09-09T08:56:56.583Z,24.50
2018-09-09T08:59:25.390Z,24.50
2018-09-09T09:01:54.191Z,24.60
2018-09-09T09:04:23.023Z,24.60
2018-09-09T09:06:51.842Z,24.70
2018-09-09T09:09:20.642Z,24.80
2018-09-09T09:11:49.608Z,24.80
2018-09-09T09:14:18.415Z,24.90
2018-09-09T09:16:47.346Z,24.90
2018-09-09T09:19:16.168Z,25.00
2018-09-09T09:21:44.953Z,25.00
2018-09-09T09:24:13.750Z,25.00
2018-09-09T09:26:43.101Z,25.10
2018-09-09T09:29:11.931Z,25.10
2018-09-09T09:31:40.703Z,25.20
2018-09-09T09:34:09.600Z,25.30
2018-09-09T09:36:38.440Z,25.30
2018-09-09T09:39:07.781Z,25.30
2018-09-09T09:41:36.574Z,25.40
2018-09-09T09:44:05.365Z,25.40
2018-09-09T09:46:34.184Z,25.40
2018-09-09T09:49:03.039Z,25.40
2018-09-09T09:51:31.847Z,25.50
2018-09-09T09:54:00.672Z,25.50
2018-09-09T09:56:29.662Z,25.50
2018-09-09T09:58:58.508Z,25.50
2018-09-09T10:01:27.365Z,25.50
2018-09-09T10:03:56.162Z,25.50
2018-09-09T10:06:24.966Z,25.50
2018-09-09T10:08:53.779Z,25.50
2018-09-09T10:11:22.653Z,25.60
2018-09-09T10:13:51.449Z,25.60
2018-09-09T10:16:20.267Z,25.60
2018-09-09T10:18:49.478Z,25.60
2018-09-09T10:21:18.315Z,25.70
2018-09-09T10:23:47.121Z,25.70
2018-09-09T10:26:15.971Z,25.70
2018-09-09T10:28:45.281Z,25.70
2018-09-09T10:31:14.103Z,25.80
2018-09-09T10:33:42.990Z,25.80
2018-09-09T10:36:11.836Z,25.90
2018-09-09T10:38:40.633Z,25.90
2018-09-09T10:41:09.799Z,26.00
2018-09-09T10:43:38.597Z,26.00
2018-09-09T10:46:07.487Z,26.10
2018-09-09T10:48:36.286Z,26.10
2018-09-09T10:51:05.118Z,26.20
2018-09-09T10:53:33.936Z,26.20
2018-09-09T10:56:02.759Z,26.20
2018-09-09T10:58:31.805Z,26.30
2018-09-09T11:01:00.629Z,26.30
2018-09-09T11:03:29.722Z,26.30
2018-09-09T11:05:58.526Z,26.30
2018-09-09T11:08:27.331Z,26.40
2018-09-09T11:10:56.145Z,26.40
2018-09-09T11:13:24.987Z,26.40
2018-09-09T11:15:53.782Z,26.50
2018-09-09T11:18:22.570Z,26.50
2018-09-09T11:20:51.370Z,26.50
2018-09-09T11:23:20.179Z,26.60
2018-09-09T11:25:49.094Z,26.60
2018-09-09T11:28:17.887Z,26.70
2018-09-09T11:30:47.391Z,26.70
2018-09-09T11:33:16.189Z,26.70
2018-09-09T11:35:44.987Z,26.70
2018-09-09T11:38:13.781Z,26.80
2018-09-09T11:40:49.313Z,26.80
2018-09-09T11:43:18.033Z,26.80
2018-09-09T11:45:46.879Z,26.90
2018-09-09T11:48:16.015Z,26.90
2018-09-09T11:50:44.863Z,26.90
2018-09-09T11:53:13.688Z,26.90
2018-09-09T11:55:42.478Z,27.00
2018-09-09T11:58:11.277Z,27.00
2018-09-09T12:00:40.114Z,27.00
2018-09-09T12:03:08.917Z,27.10
2018-09-09T12:05:37.730Z,27.10
2018-09-09T12:08:06.561Z,27.10
2018-09-09T12:10:35.570Z,27.10
2018-09-09T12:13:04.407Z,27.10
2018-09-09T12:15:33.232Z,27.10
2018-09-09T12:18:02.165Z,27.20
2018-09-09T12:20:31.015Z,27.20
2018-09-09T12:22:59.798Z,27.20
2018-09-09T12:25:28.602Z,27.20
2018-09-09T12:27:57.417Z,27.20
2018-09-09T12:30:26.237Z,27.20
2018-09-09T12:32:55.630Z,27.20
2018-09-09T12:35:24.447Z,27.20
2018-09-09T12:37:53.334Z,27.30
2018-09-09T12:40:22.113Z,27.30
2018-09-09T12:42:57.972Z,27.30
2018-09-09T12:45:32.116Z,27.30
2018-09-09T12:48:06.221Z,27.40
2018-09-09T12:50:35.210Z,27.40
2018-09-09T12:53:04.023Z,27.40
2018-09-09T12:55:32.833Z,27.40
2018-09-09T12:58:01.637Z,27.40
2018-09-09T13:00:31.118Z,27.40
2018-09-09T13:02:59.873Z,27.40
2018-09-09T13:05:28.712Z,27.40
2018-09-09T13:07:57.509Z,27.40
2018-09-09T13:10:26.333Z,27.40
2018-09-09T13:13:00.950Z,27.40
2018-09-09T13:15:29.785Z,27.40
2018-09-09T13:17:59.038Z,27.40
2018-09-09T13:20:27.850Z,27.40
2018-09-09T13:22:56.642Z,27.50
2018-09-09T13:25:25.445Z,27.40
2018-09-09T13:27:54.398Z,27.50
2018-09-09T13:30:23.266Z,27.50
2018-09-09T13:32:52.070Z,27.50
2018-09-09T13:35:21.931Z,27.50
2018-09-09T13:37:50.766Z,27.60
2018-09-09T13:40:19.583Z,27.60
2018-09-09T13:42:48.398Z,27.60
2018-09-09T13:45:17.327Z,27.60
2018-09-09T13:47:46.114Z,27.60
2018-09-09T13:50:14.929Z,27.60
2018-09-09T13:52:43.744Z,27.70
2018-09-09T13:55:12.536Z,27.70
2018-09-09T13:57:41.465Z,27.70
2018-09-09T14:00:10.315Z,27.70
2018-09-09T14:02:39.186Z,27.70
2018-09-09T14:05:09.134Z,27.70
2018-09-09T14:07:37.930Z,27.80
2018-09-09T14:10:08.816Z,27.80
2018-09-09T14:12:37.629Z,27.80
2018-09-09T14:15:08.373Z,27.80
2018-09-09T14:17:37.141Z,27.80
2018-09-09T14:20:08.429Z,27.80
2018-09-09T14:22:37.318Z,27.80
2018-09-09T14:25:07.375Z,27.80
2018-09-09T14:27:36.262Z,27.80
2018-09-09T14:30:05.340Z,27.90
2018-09-09T14:32:34.168Z,27.90
2018-09-09T14:35:02.963Z,28.00
2018-09-09T14:37:32.170Z,28.10
2018-09-09T14:40:00.974Z,28.20
2018-09-09T14:42:30.070Z,28.20
2018-09-09T14:44:58.911Z,28.30
2018-09-09T14:47:27.732Z,28.30
2018-09-09T14:49:56.600Z,28.40
2018-09-09T14:52:25.399Z,28.40
2018-09-09T14:54:54.176Z,28.60
2018-09-09T14:57:23.012Z,28.60
2018-09-09T14:59:51.843Z,28.70
2018-09-09T15:02:20.625Z,28.70
2018-09-09T15:04:49.638Z,28.70
2018-09-09T15:07:18.478Z,28.70
2018-09-09T15:09:47.328Z,28.70
2018-09-09T15:12:16.150Z,28.70
2018-09-09T15:14:45.450Z,28.60
2018-09-09T15:17:14.388Z,28.60
2018-09-09T15:19:43.209Z,28.60
2018-09-09T15:22:12.016Z,28.60
2018-09-09T15:24:40.914Z,28.60
2018-09-09T15:27:10.264Z,28.60
2018-09-09T15:29:39.101Z,28.60
2018-09-09T15:32:07.920Z,28.50
2018-09-09T15:34:36.726Z,28.50
2018-09-09T15:37:05.534Z,28.50
2018-09-09T15:39:34.690Z,28.50
2018-09-09T15:42:03.522Z,28.50
2018-09-09T15:44:32.319Z,28.50
2018-09-09T15:47:01.136Z,28.50
2018-09-09T15:49:30.293Z,28.50
2018-09-09T15:51:59.315Z,28.50
2018-09-09T15:54:28.043Z,28.60
2018-09-09T15:56:56.850Z,28.60
2018-09-09T15:59:25.658Z,28.70
2018-09-09T16:01:54.462Z,28.80
2018-09-09T16:04:23.323Z,28.90
2018-09-09T16:06:52.165Z,29.00
2018-09-09T16:09:21.103Z,29.00
2018-09-09T16:11:50.225Z,29.00
2018-09-09T16:14:19.000Z,29.00
2018-09-09T16:16:54.182Z,28.90
2018-09-09T16:19:23.001Z,28.90
2018-09-09T16:21:51.809Z,28.80
2018-09-09T16:24:20.638Z,28.80
2018-09-09T16:26:50.307Z,28.70
2018-09-09T16:29:19.122Z,28.70
2018-09-09T16:31:48.391Z,28.60
2018-09-09T16:34:17.373Z,28.60
2018-09-09T16:36:46.208Z,28.60
2018-09-09T16:39:15.091Z,28.50
2018-09-09T16:41:44.342Z,28.50
2018-09-09T16:44:13.203Z,28.40
2018-09-09T16:46:42.168Z,28.40
2018-09-09T16:49:10.927Z,28.30
2018-09-09T16:51:39.735Z,28.30
2018-09-09T16:54:08.858Z,28.20
2018-09-09T16:56:37.673Z,28.20
2018-09-09T16:59:06.499Z,28.10
2018-09-09T17:01:35.313Z,28.00
2018-09-09T17:04:04.101Z,27.90
2018-09-09T17:06:32.897Z,27.90
2018-09-09T17:09:01.720Z,27.80
2018-09-09T17:11:30.527Z,27.70
2018-09-09T17:13:59.354Z,27.60
2018-09-09T17:16:28.507Z,27.60
2018-09-09T17:18:57.326Z,27.50
2018-09-09T17:21:26.133Z,27.40
2018-09-09T17:23:54.967Z,27.30
2018-09-09T17:26:23.783Z,27.20
2018-09-09T17:28:52.570Z,27.10
2018-09-09T17:31:21.394Z,27.00
2018-09-09T17:33:50.278Z,25.50
2018-09-09T17:36:19.123Z,26.90
2018-09-09T17:38:48.137Z,26.80
2018-09-09T17:41:16.926Z,26.70
2018-09-09T17:43:46.057Z,26.70
2018-09-09T17:46:14.961Z,26.60
2018-09-09T17:48:43.773Z,26.50
2018-09-09T17:51:12.635Z,26.50
2018-09-09T17:53:41.466Z,26.40
2018-09-09T17:56:10.300Z,26.30
2018-09-09T17:58:39.074Z,26.20
2018-09-09T18:01:08.372Z,26.10
2018-09-09T18:03:37.215Z,26.10
2018-09-09T18:06:06.002Z,26.00
2018-09-09T18:08:34.939Z,25.90
2018-09-09T18:11:03.818Z,25.80
2018-09-09T18:13:32.550Z,25.80
2018-09-09T18:16:01.512Z,25.70
2018-09-09T18:18:30.354Z,25.60
2018-09-09T18:20:59.163Z,25.50
2018-09-09T18:23:28.529Z,25.40
2018-09-09T18:25:57.359Z,25.40
2018-09-09T18:28:26.178Z,25.30
2018-09-09T18:30:55.133Z,25.20
2018-09-09T18:33:23.926Z,25.20
2018-09-09T18:35:52.754Z,25.10
2018-09-09T18:38:21.639Z,25.00
2018-09-09T18:40:50.430Z,24.90
2018-09-09T18:43:19.400Z,24.90
2018-09-09T18:45:49.055Z,24.80
2018-09-09T18:48:17.854Z,24.70
2018-09-09T18:50:46.682Z,24.70
2018-09-09T18:53:15.513Z,24.60
2018-09-09T18:55:44.330Z,24.50
2018-09-09T18:58:13.149Z,24.50
2018-09-09T19:00:41.987Z,24.40
2018-09-09T19:03:10.810Z,24.30
2018-09-09T19:05:39.639Z,24.30
2018-09-09T19:08:08.597Z,24.20
2018-09-09T19:10:37.419Z,24.10
2018-09-09T19:13:06.263Z,24.10
2018-09-09T19:15:35.087Z,24.00
2018-09-09T19:18:03.881Z,24.00
2018-09-09T19:20:32.682Z,23.90
2018-09-09T19:23:01.503Z,23.90
2018-09-09T19:25:30.355Z,23.80
2018-09-09T19:27:59.138Z,23.80
2018-09-09T19:30:28.443Z,23.70
2018-09-09T19:32:57.221Z,23.60
2018-09-09T19:35:26.023Z,23.60
2018-09-09T19:37:57.790Z,23.50
2018-09-09T19:40:26.590Z,23.50
2018-09-09T19:42:55.403Z,23.40
2018-09-09T19:45:24.222Z,23.40
2018-09-09T19:47:53.535Z,23.30
2018-09-09T19:50:22.325Z,23.30
2018-09-09T19:52:51.530Z,23.20
2018-09-09T19:55:20.364Z,23.20
2018-09-09T19:57:49.171Z,23.20
2018-09-09T20:00:18.036Z,23.10
2018-09-09T20:02:46.835Z,23.10
2018-09-09T20:05:15.709Z,23.00
2018-09-09T20:07:44.778Z,23.00
2018-09-09T20:10:13.582Z,22.90
2018-09-09T20:12:42.373Z,22.90
2018-09-09T20:15:11.790Z,22.90
2018-09-09T20:17:40.581Z,22.80
2018-09-09T20:20:09.414Z,22.80
2018-09-09T20:22:38.230Z,22.80
2018-09-09T20:25:08.307Z,22.70
2018-09-09T20:27:37.150Z,22.70
2018-09-09T20:30:07.074Z,22.70
2018-09-09T20:32:35.961Z,22.70
2018-09-09T20:35:04.709Z,22.60
2018-09-09T20:37:33.641Z,22.60
2018-09-09T20:40:02.462Z,22.60
2018-09-09T20:42:31.257Z,22.60
2018-09-09T20:45:00.094Z,22.60
2018-09-09T20:47:29.019Z,22.60
2018-09-09T20:49:57.950Z,22.50
2018-09-09T20:52:26.835Z,22.50
2018-09-09T20:54:55.637Z,22.50
2018-09-09T20:57:24.454Z,22.50
2018-09-09T20:59:53.441Z,22.50
2018-09-09T21:02:22.247Z,22.50
2018-09-09T21:04:51.159Z,22.40
2018-09-09T21:07:20.005Z,22.40
2018-09-09T21:09:48.816Z,22.40
2018-09-09T21:12:17.683Z,22.40
2018-09-09T21:14:46.688Z,22.30
2018-09-09T21:17:15.555Z,22.30
2018-09-09T21:19:44.362Z,22.30
2018-09-09T21:22:13.660Z,22.30
2018-09-09T21:24:42.481Z,22.30
2018-09-09T21:27:11.358Z,22.20
2018-09-09T21:29:43.282Z,22.20
2018-09-09T21:32:12.086Z,22.20
2018-09-09T21:34:40.957Z,22.20
2018-09-09T21:37:09.835Z,22.10
2018-09-09T21:39:38.639Z,22.10
2018-09-09T21:42:07.506Z,22.10
2018-09-09T21:44:36.726Z,22.00
2018-09-09T21:47:05.567Z,22.00
2018-09-09T21:49:34.417Z,22.00
2018-09-09T21:52:03.985Z,22.00
2018-09-09T21:54:33.247Z,21.90
2018-09-09T21:57:02.177Z,21.90
2018-09-09T21:59:30.983Z,21.90
2018-09-09T22:02:04.116Z,21.80
2018-09-09T22:04:33.063Z,21.80
2018-09-09T22:07:02.092Z,21.70
2018-09-09T22:09:30.906Z,21.70
2018-09-09T22:11:59.735Z,21.70
2018-09-09T22:14:28.618Z,21.70
2018-09-09T22:16:57.427Z,21.60
2018-09-09T22:19:26.246Z,21.60
2018-09-09T22:21:55.100Z,21.60
2018-09-09T22:24:23.893Z,21.50
2018-09-09T22:26:53.015Z,21.50
2018-09-09T22:29:21.810Z,21.50
2018-09-09T22:31:50.651Z,21.50
2018-09-09T22:34:19.475Z,21.40
2018-09-09T22:36:48.289Z,21.40
2018-09-09T22:39:17.165Z,21.40
2018-09-09T22:41:46.002Z,21.30
2018-09-09T22:44:14.810Z,21.30
2018-09-09T22:46:43.712Z,21.30
2018-09-09T22:49:19.489Z,21.30
2018-09-09T22:51:51.334Z,21.30
2018-09-09T22:54:20.449Z,21.20
2018-09-09T22:56:49.255Z,21.20
2018-09-09T22:59:18.116Z,21.10
2018-09-09T23:01:46.933Z,21.10
2018-09-09T23:04:15.744Z,21.10
2018-09-09T23:06:44.544Z,21.10
2018-09-09T23:09:13.813Z,21.00
2018-09-09T23:11:42.608Z,21.00
2018-09-09T23:14:11.546Z,21.00
2018-09-09T23:16:40.359Z,20.90
2018-09-09T23:19:09.161Z,20.90
2018-09-09T23:21:37.993Z,20.90
2018-09-09T23:24:06.817Z,20.90
2018-09-09T23:26:35.629Z,20.80
2018-09-09T23:29:04.474Z,20.80
2018-09-09T23:31:33.413Z,20.80
2018-09-09T23:34:02.201Z,20.80
2018-09-09T23:36:30.999Z,20.80
2018-09-09T23:38:59.808Z,20.70
2018-09-09T23:41:28.618Z,20.70
2018-09-09T23:43:57.445Z,20.70
2018-09-09T23:46:26.261Z,20.70
2018-09-09T23:48:55.138Z,20.60
2018-09-09T23:51:23.931Z,20.60
2018-09-09T23:53:53.008Z,20.60
2018-09-09T23:56:22.329Z,20.60
2018-09-09T23:58:51.125Z,20.60
